Time;durP1;ratioP1;P1;durP2;ratioP2;P2;SDS_P1;SDS_P2;PMS_P1;PMS_P2;Temp;Humidity;BMP_temperature;BMP_pressure;BME280_temperature;BME280_humidity;BME280_pressure;Samples;Min_cycle;Max_cycle;Signal;HPM_P1;HPM_P2
2021/06/05 00:01:26;;;;;;;12.18;9.85;;;;;;;;;;5095449;28;20021;-72
2021/06/05 00:03:53;;;;;;;10.27;9.18;;;;;;;;;;5095365;28;20131;-72
2021/06/05 00:06:21;;;;;;;11.43;9.93;;;;;;;;;;5095707;28;20032;-72
2021/06/05 00:08:47;;;;;;;12.00;10.32;;;;;;;;;;5095312;28;20020;-72
2021/06/05 00:11:14;;;;;;;11.88;9.07;;;;;;;;;;5095053;28;20030;-72
2021/06/05 00:13:41;;;;;;;12.48;9.80;;;;;;;;;;5095855;28;20071;-72
2021/06/05 00:16:08;;;;;;;15.52;9.88;;;;;;;;;;5095414;28;20028;-72
2021/06/05 00:18:35;;;;;;;10.27;9.27;;;;;;;;;;5095046;28;20028;-72
2021/06/05 00:21:01;;;;;;;11.50;10.38;;;;;;;;;;5094880;28;20028;-72
2021/06/05 00:23:27;;;;;;;10.13;8.77;;;;;;;;;;5094975;28;20032;-72
2021/06/05 00:25:53;;;;;;;10.93;9.57;;;;;;;;;;5095138;28;20127;-72
2021/06/05 00:28:20;;;;;;;11.73;9.68;;;;;;;;;;5095209;28;20028;-72
2021/06/05 00:30:46;;;;;;;14.43;9.27;;;;;;;;;;5095541;28;20107;-72
2021/06/05 00:33:12;;;;;;;11.63;9.30;;;;;;;;;;5094886;28;20500;-72
2021/06/05 00:35:38;;;;;;;10.93;9.10;;;;;;;;;;5094846;28;20032;-72
2021/06/05 00:38:04;;;;;;;12.80;9.32;;;;;;;;;;5094858;28;20024;-72
2021/06/05 00:40:31;;;;;;;12.52;9.15;;;;;;;;;;5094446;28;20024;-72
2021/06/05 00:42:57;;;;;;;9.85;8.90;;;;;;;;;;5094838;28;20457;-72
2021/06/05 00:45:25;;;;;;;11.02;9.15;;;;;;;;;;5094574;28;20020;-72
2021/06/05 00:47:51;;;;;;;11.23;7.97;;;;;;;;;;5094803;28;20355;-72
2021/06/05 00:50:17;;;;;;;12.30;9.77;;;;;;;;;;5094403;28;20054;-74
2021/06/05 00:52:44;;;;;;;10.23;8.82;;;;;;;;;;5094711;28;20016;-74
2021/06/05 00:55:10;;;;;;;9.80;8.15;;;;;;;;;;5094417;28;20058;-74
2021/06/05 00:57:36;;;;;;;9.60;8.70;;;;;;;;;;5094162;28;20036;-74
2021/06/05 01:00:03;;;;;;;11.50;10.00;;;;;;;;;;5094390;28;20373;-74
2021/06/05 01:02:29;;;;;;;11.50;9.00;;;;;;;;;;5094445;28;20024;-74
2021/06/05 01:04:55;;;;;;;9.98;8.98;;;;;;;;;;5094667;28;20032;-74
2021/06/05 01:07:29;;;;;;;10.13;8.82;;;;;;;;;;5094081;28;20107;-74
2021/06/05 01:09:58;;;;;;;10.10;8.65;;;;;;;;;;5094275;28;20089;-74
2021/06/05 01:12:47;;;;;;;10.60;8.38;;;;;;;;;;5094177;28;20102;-74
2021/06/05 01:15:20;;;;;;;10.60;8.60;;;;;;;;;;5079959;28;20016;-74
2021/06/05 01:17:48;;;;;;;9.10;8.20;;;;;;;;;;5094238;28;20165;-74
2021/06/05 01:20:16;;;;;;;9.90;8.90;;;;;;;;;;5094101;28;20024;-74
2021/06/05 01:22:44;;;;;;;13.52;8.38;;;;;;;;;;5094438;28;20077;-74
2021/06/05 01:25:22;;;;;;;10.05;8.35;;;;;;;;;;5094568;28;20043;-74
2021/06/05 01:27:51;;;;;;;10.50;9.40;;;;;;;;;;5094000;28;20036;-74
2021/06/05 01:30:19;;;;;;;11.77;10.05;;;;;;;;;;5094237;28;20062;-74
2021/06/05 01:32:45;;;;;;;9.23;8.27;;;;;;;;;;5093836;28;20020;-74
2021/06/05 01:35:12;;;;;;;9.85;8.90;;;;;;;;;;5093580;28;20050;-72
2021/06/05 01:37:41;;;;;;;12.00;9.65;;;;;;;;;;5093583;28;20035;-72
2021/06/05 01:40:07;;;;;;;11.10;9.95;;;;;;;;;;5094359;28;20020;-72
2021/06/05 01:42:34;;;;;;;11.10;9.32;;;;;;;;;;5093674;28;20020;-71
2021/06/05 01:45:00;;;;;;;9.07;8.18;;;;;;;;;;5093795;28;20024;-72
2021/06/05 01:47:26;;;;;;;11.02;9.68;;;;;;;;;;5093455;28;20533;-71
2021/06/05 01:49:52;;;;;;;9.52;8.60;;;;;;;;;;5093797;28;20052;-71
2021/06/05 01:52:23;;;;;;;10.60;9.32;;;;;;;;;;5093728;28;20028;-72
2021/06/05 01:54:53;;;;;;;10.57;8.68;;;;;;;;;;5094181;28;20028;-72
2021/06/05 01:57:20;;;;;;;10.10;8.93;;;;;;;;;;5093983;28;20020;-71
2021/06/05 01:59:46;;;;;;;10.07;9.07;;;;;;;;;;5093726;28;20094;-71
2021/06/05 02:02:12;;;;;;;10.05;9.05;;;;;;;;;;5093517;28;20030;-72
2021/06/05 02:04:38;;;;;;;8.57;7.78;;;;;;;;;;5093619;28;20535;-72
2021/06/05 02:07:05;;;;;;;10.75;9.23;;;;;;;;;;5094184;28;20024;-72
2021/06/05 02:09:31;;;;;;;9.30;8.23;;;;;;;;;;5094703;28;20032;-71
2021/06/05 02:12:01;;;;;;;10.15;9.05;;;;;;;;;;5097897;28;20028;-72
2021/06/05 02:14:35;;;;;;;12.25;8.15;;;;;;;;;;5097486;28;20032;-72
2021/06/05 02:17:02;;;;;;;10.23;9.20;;;;;;;;;;5098305;28;20032;-71
2021/06/05 02:19:30;;;;;;;9.20;8.27;;;;;;;;;;5097472;28;20035;-72
2021/06/05 02:21:57;;;;;;;11.15;8.77;;;;;;;;;;5097412;28;20024;-71
2021/06/05 02:24:25;;;;;;;9.57;8.32;;;;;;;;;;5097246;28;20055;-72
2021/06/05 02:26:51;;;;;;;9.90;8.90;;;;;;;;;;5097143;28;20135;-71
2021/06/05 02:29:19;;;;;;;10.45;9.10;;;;;;;;;;5096970;28;20036;-71
2021/06/05 02:31:45;;;;;;;9.73;7.63;;;;;;;;;;5096945;28;20469;-72
2021/06/05 02:34:12;;;;;;;13.05;8.27;;;;;;;;;;5097274;28;20021;-72
2021/06/05 02:36:38;;;;;;;11.70;8.95;;;;;;;;;;5097115;28;20099;-72
2021/06/05 02:39:05;;;;;;;15.80;9.35;;;;;;;;;;5097448;28;20032;-72
2021/06/05 02:41:31;;;;;;;8.63;7.72;;;;;;;;;;5097122;28;20408;-72
2021/06/05 02:43:57;;;;;;;9.38;8.38;;;;;;;;;;5096756;28;20028;-72
2021/06/05 02:46:24;;;;;;;9.65;8.73;;;;;;;;;;5097624;28;20035;-72
2021/06/05 02:48:55;;;;;;;9.10;8.20;;;;;;;;;;5097289;28;20056;-71
2021/06/05 02:51:22;;;;;;;10.60;9.30;;;;;;;;;;5097313;28;20126;-72
2021/06/05 02:53:48;;;;;;;9.85;8.95;;;;;;;;;;5096914;28;20032;-72
2021/06/05 02:56:15;;;;;;;11.65;10.10;;;;;;;;;;5096695;28;20095;-72
2021/06/05 02:58:41;;;;;;;9.10;8.18;;;;;;;;;;5096589;28;20457;-71
2021/06/05 03:01:07;;;;;;;10.52;8.70;;;;;;;;;;5096605;28;20065;-71
2021/06/05 03:03:33;;;;;;;11.13;9.00;;;;;;;;;;5096567;28;20036;-71
2021/06/05 03:05:59;;;;;;;10.50;8.95;;;;;;;;;;5097006;28;20024;-71
2021/06/05 03:08:26;;;;;;;9.07;8.20;;;;;;;;;;5096651;28;20496;-71
2021/06/05 03:10:52;;;;;;;10.30;8.73;;;;;;;;;;5096678;28;20404;-71
2021/06/05 03:13:18;;;;;;;15.45;9.40;;;;;;;;;;5096276;28;20477;-72
2021/06/05 03:15:45;;;;;;;10.43;9.40;;;;;;;;;;5096472;28;20036;-72
2021/06/05 03:18:11;;;;;;;13.43;7.82;;;;;;;;;;5096408;28;20024;-72
2021/06/05 03:20:38;;;;;;;8.93;8.00;;;;;;;;;;5096272;28;20059;-72
2021/06/05 03:23:05;;;;;;;13.38;9.98;;;;;;;;;;5096259;28;20024;-71
2021/06/05 03:25:31;;;;;;;11.35;10.07;;;;;;;;;;5096294;28;20028;-72
2021/06/05 03:27:58;;;;;;;9.80;8.10;;;;;;;;;;5096043;28;20373;-72
2021/06/05 03:30:24;;;;;;;10.07;9.07;;;;;;;;;;5096120;28;20409;-71
2021/06/05 03:32:50;;;;;;;9.98;8.82;;;;;;;;;;5096591;28;20031;-71
2021/06/05 03:35:16;;;;;;;13.23;10.30;;;;;;;;;;5096126;28;20102;-71
2021/06/05 03:37:42;;;;;;;17.63;12.10;;;;;;;;;;5096091;28;20028;-72
2021/06/05 03:40:11;;;;;;;20.17;14.15;;;;;;;;;;5095916;28;20111;-72
2021/06/05 03:42:37;;;;;;;21.00;14.15;;;;;;;;;;5095671;28;20369;-71
2021/06/05 03:45:05;;;;;;;25.05;13.75;;;;;;;;;;5095874;28;20116;-72
2021/06/05 03:47:31;;;;;;;15.30;11.93;;;;;;;;;;5095810;28;20055;-71
2021/06/05 03:49:57;;;;;;;19.45;12.23;;;;;;;;;;5095914;28;20113;-71
2021/06/05 03:52:23;;;;;;;23.02;13.43;;;;;;;;;;5095658;28;20024;-71
2021/06/05 03:54:50;;;;;;;22.27;12.48;;;;;;;;;;5095476;28;20077;-70
2021/06/05 03:57:16;;;;;;;18.05;11.07;;;;;;;;;;5095488;28;20032;-70
2021/06/05 03:59:42;;;;;;;15.98;12.07;;;;;;;;;;5096266;28;20020;-72
2021/06/05 04:02:08;;;;;;;22.02;12.20;;;;;;;;;;5096059;28;20024;-72
2021/06/05 04:04:34;;;;;;;20.65;11.25;;;;;;;;;;5095483;28;20523;-71
2021/06/05 04:07:00;;;;;;;17.33;12.85;;;;;;;;;;5095663;28;20032;-73
2021/06/05 04:09:26;;;;;;;16.40;11.27;;;;;;;;;;5095660;28;20020;-74
2021/06/05 04:11:52;;;;;;;13.95;11.18;;;;;;;;;;5095171;28;20398;-74
2021/06/05 04:14:18;;;;;;;15.00;11.63;;;;;;;;;;5095233;28;20024;-74
2021/06/05 04:16:44;;;;;;;17.48;11.48;;;;;;;;;;5095280;28;20024;-75
2021/06/05 04:19:11;;;;;;;11.73;10.50;;;;;;;;;;5095373;28;20028;-73
2021/06/05 04:21:37;;;;;;;12.95;10.82;;;;;;;;;;5094941;28;20100;-73
2021/06/05 04:24:03;;;;;;;13.55;10.93;;;;;;;;;;5095156;28;20378;-73
2021/06/05 04:26:29;;;;;;;17.10;10.85;;;;;;;;;;5094686;28;20035;-74
2021/06/05 04:28:55;;;;;;;19.65;10.60;;;;;;;;;;5095733;28;20082;-73
2021/06/05 04:31:21;;;;;;;14.82;10.65;;;;;;;;;;5095406;28;20020;-74
2021/06/05 04:33:47;;;;;;;12.55;10.65;;;;;;;;;;5094180;28;20378;-73
2021/06/05 04:36:14;;;;;;;21.00;11.43;;;;;;;;;;5094845;28;20026;-72
2021/06/05 04:38:40;;;;;;;15.82;10.65;;;;;;;;;;5095000;28;20028;-73
2021/06/05 04:41:07;;;;;;;14.45;10.85;;;;;;;;;;5094773;28;20098;-73
2021/06/05 04:43:33;;;;;;;12.57;11.13;;;;;;;;;;5094983;28;20546;-74
2021/06/05 04:45:59;;;;;;;12.20;9.93;;;;;;;;;;5094696;28;20028;-74
2021/06/05 04:48:25;;;;;;;20.80;10.85;;;;;;;;;;5095126;28;20081;-74
2021/06/05 04:50:51;;;;;;;12.55;10.65;;;;;;;;;;5099385;28;20458;-73
2021/06/05 04:53:17;;;;;;;10.82;8.57;;;;;;;;;;5103747;28;20034;-71
2021/06/05 04:55:43;;;;;;;14.40;10.95;;;;;;;;;;5102354;28;20077;-72
2021/06/05 04:58:10;;;;;;;11.75;10.30;;;;;;;;;;5103304;28;20051;-73
2021/06/05 05:00:38;;;;;;;16.55;10.50;;;;;;;;;;5102503;28;20020;-75
2021/06/05 05:03:05;;;;;;;10.35;9.35;;;;;;;;;;5102222;28;20035;-73
2021/06/05 05:05:31;;;;;;;11.75;8.32;;;;;;;;;;5103014;28;20039;-74
2021/06/05 05:07:57;;;;;;;18.42;11.00;;;;;;;;;;5103757;28;20081;-73
2021/06/05 05:10:25;;;;;;;11.30;9.77;;;;;;;;;;5101663;28;20025;-73
2021/06/05 05:12:51;;;;;;;12.27;9.65;;;;;;;;;;5102903;28;20019;-74
2021/06/05 05:15:17;;;;;;;13.02;9.43;;;;;;;;;;5103628;28;20461;-73
2021/06/05 05:17:43;;;;;;;10.88;9.10;;;;;;;;;;5101885;28;20492;-73
2021/06/05 05:20:11;;;;;;;9.88;8.88;;;;;;;;;;5102772;28;20031;-73
2021/06/05 05:22:38;;;;;;;11.70;9.88;;;;;;;;;;5103716;28;20051;-73
2021/06/05 05:25:05;;;;;;;15.65;10.38;;;;;;;;;;5101954;28;20028;-73
2021/06/05 05:27:31;;;;;;;10.75;8.40;;;;;;;;;;5103012;28;20031;-73
2021/06/05 05:29:57;;;;;;;13.15;9.57;;;;;;;;;;5103583;28;20503;-72
2021/06/05 05:32:23;;;;;;;9.82;8.80;;;;;;;;;;5101995;28;20028;-73
2021/06/05 05:34:49;;;;;;;14.60;9.32;;;;;;;;;;5102818;28;20055;-75
2021/06/05 05:37:15;;;;;;;9.40;8.43;;;;;;;;;;5101057;28;20016;-73
2021/06/05 05:39:41;;;;;;;12.02;9.43;;;;;;;;;;5093431;28;20359;-74
2021/06/05 05:42:07;;;;;;;16.45;9.43;;;;;;;;;;5093747;28;20107;-74
2021/06/05 05:44:33;;;;;;;11.60;8.52;;;;;;;;;;5094778;28;20465;-74
2021/06/05 05:46:59;;;;;;;10.43;7.80;;;;;;;;;;5098313;28;20024;-74
2021/06/05 05:49:26;;;;;;;14.60;8.07;;;;;;;;;;5097958;28;20387;-75
2021/06/05 05:51:52;;;;;;;16.95;9.25;;;;;;;;;;5098101;28;20024;-72
2021/06/05 05:54:18;;;;;;;10.98;9.63;;;;;;;;;;5097688;28;20355;-72
2021/06/05 05:56:44;;;;;;;22.30;10.70;;;;;;;;;;5097726;28;20066;-72
2021/06/05 05:59:10;;;;;;;14.57;9.20;;;;;;;;;;5097930;28;20444;-72
2021/06/05 06:01:37;;;;;;;21.15;10.15;;;;;;;;;;5097493;28;20107;-73
2021/06/05 06:04:03;;;;;;;19.42;10.30;;;;;;;;;;5095632;28;20373;-72
2021/06/05 06:06:31;;;;;;;16.60;10.80;;;;;;;;;;5097305;28;20064;-74
2021/06/05 06:08:57;;;;;;;38.42;10.68;;;;;;;;;;5096509;28;20024;-73
2021/06/05 06:11:23;;;;;;;17.52;9.65;;;;;;;;;;5097397;28;20016;-74
2021/06/05 06:13:49;;;;;;;19.88;9.57;;;;;;;;;;5097048;28;20036;-73
2021/06/05 06:16:15;;;;;;;20.73;10.18;;;;;;;;;;5097208;28;20107;-73
2021/06/05 06:18:42;;;;;;;13.40;9.52;;;;;;;;;;5096361;28;20536;-74
2021/06/05 06:21:08;;;;;;;21.75;9.88;;;;;;;;;;5094794;28;20378;-74
2021/06/05 06:23:36;;;;;;;22.10;9.77;;;;;;;;;;5094939;28;20027;-72
2021/06/05 06:26:03;;;;;;;19.45;9.63;;;;;;;;;;5096592;28;20030;-74
2021/06/05 06:28:30;;;;;;;23.80;9.02;;;;;;;;;;5096343;28;20031;-73
2021/06/05 06:30:56;;;;;;;13.68;9.18;;;;;;;;;;5096429;28;20051;-74
2021/06/05 06:33:22;;;;;;;12.65;9.10;;;;;;;;;;5096760;28;20067;-73
2021/06/05 06:35:49;;;;;;;17.63;8.98;;;;;;;;;;5096020;28;20020;-73
2021/06/05 06:38:16;;;;;;;14.77;9.65;;;;;;;;;;5096672;28;20366;-73
2021/06/05 06:40:42;;;;;;;10.98;8.75;;;;;;;;;;5096562;28;20058;-72
2021/06/05 06:43:09;;;;;;;11.77;8.77;;;;;;;;;;5096173;28;20040;-72
2021/06/05 06:45:36;;;;;;;18.73;9.20;;;;;;;;;;5096506;28;20491;-72
2021/06/05 06:48:02;;;;;;;13.27;9.63;;;;;;;;;;5095927;28;20024;-73
2021/06/05 06:50:28;;;;;;;11.85;8.93;;;;;;;;;;5096217;28;20052;-71
2021/06/05 06:52:54;;;;;;;14.23;8.50;;;;;;;;;;5095955;28;20031;-72
2021/06/05 06:55:21;;;;;;;12.05;9.48;;;;;;;;;;5096902;28;20037;-71
2021/06/05 06:57:47;;;;;;;17.85;9.15;;;;;;;;;;5096533;28;20021;-77
2021/06/05 07:00:15;;;;;;;11.65;8.52;;;;;;;;;;5098479;28;20074;-76
2021/06/05 07:02:41;;;;;;;10.20;8.20;;;;;;;;;;5098763;28;20020;-77
2021/06/05 07:05:07;;;;;;;9.75;8.75;;;;;;;;;;5098127;28;20028;-78
2021/06/05 07:07:33;;;;;;;13.80;8.35;;;;;;;;;;5098257;28;20023;-78
2021/06/05 07:09:59;;;;;;;11.88;8.57;;;;;;;;;;5098046;28;20028;-77
2021/06/05 07:12:25;;;;;;;10.38;8.95;;;;;;;;;;5097871;28;20062;-79
2021/06/05 07:14:51;;;;;;;10.65;8.48;;;;;;;;;;5097721;28;20024;-79
2021/06/05 07:17:18;;;;;;;13.13;8.07;;;;;;;;;;5095935;28;20020;-80
2021/06/05 07:19:44;;;;;;;15.48;10.90;;;;;;;;;;5095836;28;20034;-78
2021/06/05 07:22:10;;;;;;;14.45;8.60;;;;;;;;;;5098357;28;20020;-79
2021/06/05 07:24:36;;;;;;;10.35;8.98;;;;;;;;;;5096596;28;20127;-80
2021/06/05 07:27:03;;;;;;;11.40;8.82;;;;;;;;;;5095591;28;20375;-80
2021/06/05 07:29:29;;;;;;;21.55;8.32;;;;;;;;;;5100022;28;20024;-79
2021/06/05 07:31:55;;;;;;;15.43;8.32;;;;;;;;;;5098710;28;20020;-81
2021/06/05 07:34:22;;;;;;;18.65;9.00;;;;;;;;;;5096791;28;20373;-80
2021/06/05 07:36:49;;;;;;;19.95;9.05;;;;;;;;;;5095796;28;20032;-79
2021/06/05 07:39:16;;;;;;;15.02;9.10;;;;;;;;;;5096573;28;20031;-78
2021/06/05 07:41:42;;;;;;;12.70;10.40;;;;;;;;;;5097213;28;20021;-78
2021/06/05 07:44:09;;;;;;;9.57;8.57;;;;;;;;;;5097042;28;20070;-77
2021/06/05 07:46:39;;;;;;;16.27;10.45;;;;;;;;;;5095619;28;20024;-76
2021/06/05 07:49:05;;;;;;;30.33;11.15;;;;;;;;;;5095590;28;20034;-79
2021/06/05 07:51:31;;;;;;;13.75;10.07;;;;;;;;;;5095064;28;20020;-77
2021/06/05 07:53:57;;;;;;;14.10;12.30;;;;;;;;;;5095008;28;20093;-78
2021/06/05 07:56:23;;;;;;;14.43;13.07;;;;;;;;;;5094840;28;20104;-79
2021/06/05 07:58:50;;;;;;;12.18;10.90;;;;;;;;;;5095329;28;20032;-79
2021/06/05 08:01:16;;;;;;;12.70;11.43;;;;;;;;;;5094986;28;20027;-79
2021/06/05 08:03:42;;;;;;;19.67;13.05;;;;;;;;;;5094752;28;20038;-79
2021/06/05 08:06:08;;;;;;;17.13;11.15;;;;;;;;;;5095142;28;20035;-79
2021/06/05 08:08:34;;;;;;;17.40;13.13;;;;;;;;;;5094210;28;20024;-78
2021/06/05 08:11:00;;;;;;;30.38;11.75;;;;;;;;;;5097885;28;20030;-82
2021/06/05 08:13:26;;;;;;;12.55;11.45;;;;;;;;;;5101827;28;20028;-78
2021/06/05 08:15:53;;;;;;;13.48;12.18;;;;;;;;;;5099422;28;20023;-81
2021/06/05 08:18:19;;;;;;;14.93;12.73;;;;;;;;;;5114084;28;20031;-79
2021/06/05 08:20:46;;;;;;;14.10;12.73;;;;;;;;;;5096396;28;20020;-79
2021/06/05 08:23:12;;;;;;;19.42;12.68;;;;;;;;;;5114517;28;20032;-79
2021/06/05 08:25:39;;;;;;;13.85;12.52;;;;;;;;;;5114267;28;20509;-79
2021/06/05 08:28:05;;;;;;;15.50;12.25;;;;;;;;;;5114637;28;20026;-78
2021/06/05 08:30:33;;;;;;;15.38;13.77;;;;;;;;;;5099677;28;20024;-80
2021/06/05 08:33:00;;;;;;;12.82;11.52;;;;;;;;;;5093308;28;20064;-80
2021/06/05 08:35:26;;;;;;;14.77;13.25;;;;;;;;;;5093479;28;20051;-82
2021/06/05 08:37:52;;;;;;;15.15;13.57;;;;;;;;;;5093609;28;20065;-80
2021/06/05 08:40:23;;;;;;;14.68;13.20;;;;;;;;;;5103163;28;20028;-77
2021/06/05 08:42:50;;;;;;;15.68;14.07;;;;;;;;;;5093336;28;20024;-78
2021/06/05 08:45:18;;;;;;;18.60;13.93;;;;;;;;;;5093160;28;20409;-81
2021/06/05 08:47:44;;;;;;;22.95;13.65;;;;;;;;;;5092404;28;20469;-80
2021/06/05 08:50:11;;;;;;;14.35;12.95;;;;;;;;;;5091665;28;20048;-80
2021/06/05 08:52:40;;;;;;;14.18;12.93;;;;;;;;;;5093016;28;20045;-79
2021/06/05 08:55:13;;;;;;;17.70;12.73;;;;;;;;;;5111939;28;20047;-82
2021/06/05 08:57:55;;;;;;;13.52;12.20;;;;;;;;;;5093023;28;20035;-76
2021/06/05 09:00:21;;;;;;;;;;;;;;;;;;5109229;28;20027;-83
2021/06/05 09:02:48;;;;;;;14.18;12.85;;;;;;;;;;5102502;28;20395;-79
2021/06/05 09:05:20;;;;;;;18.35;13.57;;;;;;;;;;5093344;28;20030;-82
2021/06/05 09:07:46;;;;;;;;;;;;;;;;;;5101559;28;20098;-83
2021/06/05 09:10:13;;;;;;;23.33;12.77;;;;;;;;;;5110846;28;19942;-81
2021/06/05 09:12:39;;;;;;;13.63;12.32;;;;;;;;;;5095789;28;20042;-79
2021/06/05 09:15:06;;;;;;;18.77;13.18;;;;;;;;;;5109789;28;20422;-85
2021/06/05 09:17:36;;;;;;;17.50;13.38;;;;;;;;;;5094129;28;20492;-78
2021/06/05 09:20:05;;;;;;;13.55;12.15;;;;;;;;;;5101026;28;20073;-79
2021/06/05 09:22:33;;;;;;;14.23;12.32;;;;;;;;;;5102071;28;20023;-79
2021/06/05 09:24:59;;;;;;;14.43;11.98;;;;;;;;;;5108290;28;20074;-79
2021/06/05 09:27:26;;;;;;;12.60;11.38;;;;;;;;;;5114103;28;20030;-81
2021/06/05 09:30:02;;;;;;;13.05;11.43;;;;;;;;;;5113811;28;20146;-78
2021/06/05 09:32:29;;;;;;;14.10;10.18;;;;;;;;;;5113862;28;20377;-84
2021/06/05 09:34:57;;;;;;;17.15;10.55;;;;;;;;;;5114309;28;20016;-78
2021/06/05 09:37:27;;;;;;;15.85;11.13;;;;;;;;;;5096283;28;20024;-80
2021/06/05 09:40:13;;;;;;;18.35;11.88;;;;;;;;;;5094002;28;20025;-80
2021/06/05 09:42:42;;;;;;;12.25;10.50;;;;;;;;;;5093357;28;20020;-76
2021/06/05 09:45:28;;;;;;;10.80;9.30;;;;;;;;;;5093162;28;20378;-81
2021/06/05 09:48:13;;;;;;;12.25;10.10;;;;;;;;;;5079062;28;20020;-79
2021/06/05 09:50:42;;;;;;;16.70;10.32;;;;;;;;;;5093749;28;20059;-83
2021/06/05 09:53:10;;;;;;;13.77;10.10;;;;;;;;;;5093935;28;20051;-78
2021/06/05 09:55:36;;;;;;;13.73;9.20;;;;;;;;;;5093353;28;20404;-76
2021/06/05 09:58:08;;;;;;;11.00;9.63;;;;;;;;;;5093501;28;20028;-77
2021/06/05 10:00:37;;;;;;;17.85;9.75;;;;;;;;;;5093091;28;20535;-78
2021/06/05 10:03:21;;;;;;;14.10;9.27;;;;;;;;;;5092602;28;20124;-72
2021/06/05 10:05:48;;;;;;;9.20;8.32;;;;;;;;;;5092869;28;20028;-70
2021/06/05 10:08:34;;;;;;;10.27;9.15;;;;;;;;;;5093068;28;20020;-72
2021/06/05 10:11:03;;;;;;;9.75;8.82;;;;;;;;;;5078067;28;20058;-72
2021/06/05 10:13:30;;;;;;;9.95;8.93;;;;;;;;;;5101906;28;20039;-71
2021/06/05 10:15:59;;;;;;;12.75;9.63;;;;;;;;;;5101912;28;20095;-70
2021/06/05 10:18:26;;;;;;;12.90;8.50;;;;;;;;;;5100428;28;20024;-71
2021/06/05 10:20:54;;;;;;;10.63;9.15;;;;;;;;;;5101237;28;20376;-71
2021/06/05 10:23:29;;;;;;;10.98;7.95;;;;;;;;;;5092744;28;20041;-70
2021/06/05 10:25:56;;;;;;;9.52;8.65;;;;;;;;;;5095096;28;20062;-72
2021/06/05 10:28:45;;;;;;;9.65;8.25;;;;;;;;;;5104510;28;20049;-70
2021/06/05 10:31:12;;;;;;;12.10;8.13;;;;;;;;;;5090674;28;20024;-70
2021/06/05 10:33:48;;;;;;;11.13;7.60;;;;;;;;;;5096810;28;20036;-70
2021/06/05 10:36:17;;;;;;;13.18;8.90;;;;;;;;;;5096703;28;20109;-70
2021/06/05 10:38:49;;;;;;;9.70;7.72;;;;;;;;;;5095821;28;20473;-71
2021/06/05 10:41:17;;;;;;;13.63;8.35;;;;;;;;;;5096846;28;20028;-69
2021/06/05 10:43:43;;;;;;;10.18;9.15;;;;;;;;;;5095982;28;20588;-71
2021/06/05 10:46:29;;;;;;;10.73;9.55;;;;;;;;;;5096734;28;20078;-71
2021/06/05 10:49:02;;;;;;;15.75;10.18;;;;;;;;;;5094937;28;20020;-70
2021/06/05 10:51:28;;;;;;;10.63;9.40;;;;;;;;;;5096866;28;20024;-69
2021/06/05 10:53:59;;;;;;;9.70;8.73;;;;;;;;;;5096641;28;20024;-70
2021/06/05 10:56:38;;;;;;;9.18;8.25;;;;;;;;;;5096169;28;20031;-70
2021/06/05 10:59:05;;;;;;;14.38;9.15;;;;;;;;;;5096663;28;20036;-70
2021/06/05 11:01:51;;;;;;;9.07;8.13;;;;;;;;;;5095986;28;20021;-68
2021/06/05 11:04:37;;;;;;;10.57;7.78;;;;;;;;;;5094939;28;20584;-70
2021/06/05 11:07:23;;;;;;;8.32;7.53;;;;;;;;;;5095547;28;20024;-70
2021/06/05 11:09:50;;;;;;;10.98;6.63;;;;;;;;;;5095040;28;20032;-71
2021/06/05 11:12:36;;;;;;;6.80;6.20;;;;;;;;;;5095514;28;20110;-70
2021/06/05 11:15:02;;;;;;;10.68;7.25;;;;;;;;;;5096646;28;20012;-70
2021/06/05 11:17:32;;;;;;;6.90;6.20;;;;;;;;;;5104212;28;20028;-70
2021/06/05 11:20:19;;;;;;;7.60;6.85;;;;;;;;;;5103434;28;20456;-69
2021/06/05 11:23:05;;;;;;;7.90;7.05;;;;;;;;;;5090729;28;20019;-70
2021/06/05 11:25:34;;;;;;;13.27;7.88;;;;;;;;;;5087757;28;20043;-71
2021/06/05 11:28:19;;;;;;;8.18;7.20;;;;;;;;;;5103335;28;20499;-71
2021/06/05 11:30:45;;;;;;;13.70;7.68;;;;;;;;;;5111964;28;20028;-71
2021/06/05 11:33:11;;;;;;;9.10;7.20;;;;;;;;;;5104647;28;20059;-71
2021/06/05 11:35:59;;;;;;;10.00;6.72;;;;;;;;;;5105570;28;20099;-71
2021/06/05 11:38:45;;;;;;;7.47;6.75;;;;;;;;;;5105281;28;20032;-70
2021/06/05 11:41:12;;;;;;;10.35;6.68;;;;;;;;;;5083971;28;20350;-71
2021/06/05 11:43:39;;;;;;;8.07;7.30;;;;;;;;;;5102440;28;20081;-72
2021/06/05 11:46:25;;;;;;;7.72;7.03;;;;;;;;;;5104569;28;20032;-72
2021/06/05 11:48:59;;;;;;;7.88;7.22;;;;;;;;;;5085832;28;20020;-71
2021/06/05 11:51:27;;;;;;;9.65;7.25;;;;;;;;;;5102941;28;20024;-72
2021/06/05 11:53:55;;;;;;;7.70;6.95;;;;;;;;;;5104069;28;20024;-73
2021/06/05 11:56:23;;;;;;;7.55;6.85;;;;;;;;;;5104112;28;20016;-77
2021/06/05 11:58:49;;;;;;;8.48;7.60;;;;;;;;;;5102988;28;20028;-71
2021/06/05 12:01:21;;;;;;;14.30;7.57;;;;;;;;;;5103902;28;20065;-72
2021/06/05 12:03:47;;;;;;;;;;;;;;;;;;5105327;28;20016;-71
2021/06/05 12:06:16;;;;;;;8.00;7.20;;;;;;;;;;5103001;28;19919;-72
2021/06/05 12:08:43;;;;;;;11.05;6.40;;;;;;;;;;5102450;28;20036;-69
2021/06/05 12:11:17;;;;;;;8.82;6.65;;;;;;;;;;5104302;28;20505;-69
2021/06/05 12:13:44;;;;;;;7.78;6.97;;;;;;;;;;5104382;28;20067;-70
2021/06/05 12:16:14;;;;;;;7.30;6.75;;;;;;;;;;5100670;28;20077;-69
2021/06/05 12:18:41;;;;;;;8.63;7.30;;;;;;;;;;5101996;28;20059;-70
2021/06/05 12:21:21;;;;;;;9.07;7.18;;;;;;;;;;5103302;28;20177;-72
2021/06/05 12:23:47;;;;;;;6.95;6.32;;;;;;;;;;5101603;28;20028;-71
2021/06/05 12:26:14;;;;;;;7.05;6.45;;;;;;;;;;5102817;28;20101;-71
2021/06/05 12:28:42;;;;;;;6.38;5.88;;;;;;;;;;5110905;28;20385;-72
2021/06/05 12:31:12;;;;;;;19.33;6.78;;;;;;;;;;5102417;28;20488;-71
2021/06/05 12:33:38;;;;;;;7.28;6.55;;;;;;;;;;5102255;28;20098;-73
2021/06/05 12:36:24;;;;;;;6.78;6.13;;;;;;;;;;5104243;28;20012;-71
2021/06/05 12:38:51;;;;;;;7.05;6.35;;;;;;;;;;5085067;28;20036;-71
2021/06/05 12:41:19;;;;;;;10.27;6.40;;;;;;;;;;5102273;28;20020;-71
2021/06/05 12:43:45;;;;;;;10.18;6.20;;;;;;;;;;5104319;28;20027;-71
2021/06/05 12:46:12;;;;;;;10.77;5.80;;;;;;;;;;5102193;28;20027;-71
2021/06/05 12:48:38;;;;;;;6.45;5.90;;;;;;;;;;5101827;28;20060;-71
2021/06/05 12:51:05;;;;;;;8.75;5.65;;;;;;;;;;5101815;28;20387;-72
2021/06/05 12:53:35;;;;;;;5.95;5.28;;;;;;;;;;5114468;28;20019;-69
2021/06/05 12:56:03;;;;;;;7.60;6.50;;;;;;;;;;5114349;28;20016;-70
2021/06/05 12:58:36;;;;;;;6.22;5.63;;;;;;;;;;5114134;28;20031;-71
2021/06/05 13:01:04;;;;;;;9.55;6.35;;;;;;;;;;5114339;28;20031;-70
2021/06/05 13:03:38;;;;;;;8.45;7.55;;;;;;;;;;5114287;28;20497;-77
2021/06/05 13:06:07;;;;;;;7.55;6.95;;;;;;;;;;5114883;28;20028;-77
2021/06/05 13:08:35;;;;;;;8.20;7.40;;;;;;;;;;5114283;28;20491;-78
2021/06/05 13:11:01;;;;;;;8.40;6.10;;;;;;;;;;5114900;28;20023;-80
2021/06/05 13:13:28;;;;;;;10.70;7.05;;;;;;;;;;5114465;28;20388;-80
2021/06/05 13:15:56;;;;;;;8.38;6.85;;;;;;;;;;5114854;28;20023;-82
2021/06/05 13:18:28;;;;;;;8.63;7.68;;;;;;;;;;5113752;28;20468;-83
2021/06/05 13:20:56;;;;;;;8.77;8.07;;;;;;;;;;5113636;28;20024;-84
2021/06/05 13:23:30;;;;;;;7.93;7.32;;;;;;;;;;5114099;28;20024;-87
2021/06/05 13:25:57;;;;;;;7.50;6.72;;;;;;;;;;5111661;28;20085;-85
2021/06/05 13:28:26;;;;;;;8.50;7.70;;;;;;;;;;5112105;28;20049;-84
2021/06/05 13:30:53;;;;;;;7.55;6.80;;;;;;;;;;5113163;28;20027;-86
2021/06/05 13:33:41;;;;;;;7.82;7.05;;;;;;;;;;5114483;28;20039;-84
2021/06/05 13:36:09;;;;;;;16.05;6.40;;;;;;;;;;5099270;28;20020;-75
2021/06/05 13:38:49;;;;;;;7.25;5.90;;;;;;;;;;5113723;28;20027;-79
2021/06/05 13:41:15;;;;;;;9.00;6.97;;;;;;;;;;5114309;28;20438;-77
2021/06/05 13:43:41;;;;;;;6.72;6.15;;;;;;;;;;5113688;28;20035;-77
2021/06/05 13:46:07;;;;;;;7.55;5.78;;;;;;;;;;5113607;28;20469;-78
2021/06/05 13:48:33;;;;;;;9.38;6.13;;;;;;;;;;5113458;28;20059;-78
2021/06/05 13:50:59;;;;;;;7.28;6.55;;;;;;;;;;5113775;28;20126;-78
2021/06/05 13:56:29;;;;;;;7.88;6.60;;;;;;;;;;5113813;28;20435;-78
2021/06/05 13:58:55;;;;;;;17.42;7.50;;;;;;;;;;5113280;28;20050;-78
2021/06/05 14:01:23;;;;;;;12.48;6.55;;;;;;;;;;5113639;28;20027;-79
2021/06/05 14:03:49;;;;;;;10.27;7.15;;;;;;;;;;5112965;28;20047;-80
2021/06/05 14:06:15;;;;;;;7.35;6.65;;;;;;;;;;5115391;28;20059;-77
2021/06/05 14:08:41;;;;;;;12.45;7.13;;;;;;;;;;5117452;28;20034;-79
2021/06/05 14:11:08;;;;;;;16.38;6.95;;;;;;;;;;5117919;28;20024;-77
2021/06/05 14:13:34;;;;;;;21.45;7.53;;;;;;;;;;5117573;28;20027;-78
2021/06/05 14:16:01;;;;;;;16.30;6.72;;;;;;;;;;5117101;28;20388;-76
2021/06/05 14:18:27;;;;;;;9.88;6.82;;;;;;;;;;5117069;28;20023;-75
2021/06/05 14:20:54;;;;;;;10.48;6.00;;;;;;;;;;5117830;28;20026;-83
2021/06/05 14:23:21;;;;;;;7.38;6.05;;;;;;;;;;5118209;28;20032;-82
2021/06/05 14:25:47;;;;;;;6.97;5.97;;;;;;;;;;5117788;28;20411;-79
2021/06/05 14:28:13;;;;;;;9.90;6.53;;;;;;;;;;5117709;28;20015;-78
2021/06/05 14:30:42;;;;;;;36.95;16.33;;;;;;;;;;5117653;28;20035;-79
2021/06/05 14:33:08;;;;;;;43.28;18.58;;;;;;;;;;5117802;28;20481;-77
2021/06/05 14:35:35;;;;;;;28.27;16.02;;;;;;;;;;5117802;28;20055;-78
2021/06/05 14:38:04;;;;;;;33.70;15.63;;;;;;;;;;5117714;28;20062;-78
2021/06/05 14:40:30;;;;;;;31.33;15.85;;;;;;;;;;5117597;28;20027;-78